航空気象通報

ウインドサーファーのための航空気象通報による風予報です。

10/12-10/14の航空気象通報

2018年10月12日 22時45分45秒 | お天気
羽田空港
TAF RJTT 121105Z 1212/1318 03014KT 9999 FEW020 BKN040
日本時間12日21時-14日03時:030度から14ノットの風


静岡空港
TAF RJNS 121105Z 1212/1318 05006KT 9999 FEW020 BKN030
BECMG 1312/1315 32005KT
日本時間12日21時-13日21時:050度から6ノットの風
21-24時:風が変化
14日00-03時:320度から5ノットの風


福岡空港
TAF RJFF 121108Z 1212/1318 17005KT 9999 FEW030
BECMG 1300/1303 02010KT
BECMG 1312/1315 14003KT
日本時間12日21時-13日09時:170度から5ノットの風
09-12時:風が変化
12-21時:020度から10ノットの風
21-24時:風が変化
14日00-03時:140度から3ノットの風


那覇空港
TAF ROAH 121105Z 1212/1318 04006KT 9999 FEW015 BKN040
BECMG 1300/1303 02016KT
日本時間12日21時-13日09時:040度から6ノットの風
09-12時:風が変化
12時-14日03時:020度から16ノットの風


石垣空港
TAF ROIG 121111Z 1212/1318 05020KT 9999 FEW008 BKN015
日本時間12日21時-14日03時:050度から20ノットの風


マウイのカフルイ空港
PHOG 121128Z 1212/1312 05007KT P6SM FEW030 SCT060
FM122000 02011KT P6SM VCSH SCT030 BKN050
FM130500 VRB05KT P6SM VCSH SCT030 OVC050 AMD LTD TO VIS AND WIND TIL 121600
ハワイ時間12日02-10時:050度から7ノットの風

10-19時:020度から11ノットの風
19時-13日02時:風向不定5ノットの風


サイパン空港
PGSN 121123Z 1212/1312 09012KT P6SM VCSH FEW017 SCT025
マリアナ時間12日22時-13日22時:090度から12ノットの風
ジャンル:
お天気
コメント   この記事についてブログを書く
« 10/9-10/11の航空気象通報 | トップ | 10/13-10/15の航空気象通報 »
最近の画像もっと見る

コメントを投稿

ブログ作成者から承認されるまでコメントは反映されません。

お天気」カテゴリの最新記事